Ann Arbor, MI

11:04 AM EST on February 13, 2016 (GMT -0500)
Walker Briar Works | | Change Station
CLOSE
Current Station
Personal Weather Station
Location: Ann Arbor, MI
Elevation: 961 ft
Nearby Weather Stations

Elev 961 ft 42.26 °N, 83.77 °W | Updated 4 minutes ago

Clear
Clear
14.2 °F
Feels Like 8 °F
N
3.8
Wind Variable Wind from West
Gusts 9.2 mph

Today
High -- | Low -- °F
--% Chance of Precip.
Yesterday
High -- | Low -- °F
Precip. -- in
Pressure 30.48 in
Visibility 10.0 miles
Clouds Scattered Clouds 3600 ft
Windchill 8 °F
Dew Point 1 °F
Humidity 54%
Rainfall 0.00 in
Snow Depth Not available.
7:34 AM 6:04 PM
Waxing Crescent, 32% visible
METAR KARB 131553Z 33010KT 10SM SCT036 M11/M19 A3043 RMK AO2 SLP322 T11111189
Pressure 30.48 in
Visibility 10.0 miles
Clouds Scattered Clouds 3600 ft
Windchill 8 °F
Dew Point 1 °F
Humidity 54%
Rainfall 0.00 in
Snow Depth Not available.
7:34 AM 6:04 PM
Waxing Crescent, 32% visible
METAR KARB 131553Z 33010KT 10SM SCT036 M11/M19 A3043 RMK AO2 SLP322 T11111189

10-Day Weather Forecast

Almanac

Astronomy

Feb. 13, 2016 Rise Set
Actual Time
Civil Twilight
Nautical Twilight
Astronomical Twilight
Moon
Length of Visible Light
Length of Day
Tomorrow will be .
, % of the Moon is Illuminated

Today's Extremes

State Highs State Lows

Community

WunderPhotos

Upload Photos

1,892,595 photos uploaded!

WunderBlog® & News

Nearby

Air Quality

  Air Quality AQ Index Pollutant
Not available.

Snow Depth

Station Depth Elevation

Earthquake Activity

City Distance Mag. Time & Date
Minimum magnitude displayed is 2.5.

Coastal Water Temperatures

Place Temperature

Stations

Nearby Weather Stations

Station Location Temp. Windchill Dew Point Humidity Wind Precip. Elev Updated Type
                   

Watches & Warnings

There are currently no watches in effect.